sensor_id;sensor_type;location;lat;lon;timestamp;temperature;humidity
34829;DHT22;21042;47.620;12.188;2023-06-04T00:01:12;15.30;99.90
34829;DHT22;21042;47.620;12.188;2023-06-04T00:03:43;15.30;99.90
34829;DHT22;21042;47.620;12.188;2023-06-04T00:06:10;15.20;99.90
34829;DHT22;21042;47.620;12.188;2023-06-04T00:08:36;15.20;99.90
34829;DHT22;21042;47.620;12.188;2023-06-04T00:11:03;15.20;99.90
34829;DHT22;21042;47.620;12.188;2023-06-04T00:13:30;15.20;99.90
34829;DHT22;21042;47.620;12.188;2023-06-04T00:15:57;15.10;99.90
34829;DHT22;21042;47.620;12.188;2023-06-04T00:18:24;15.10;99.90
34829;DHT22;21042;47.620;12.188;2023-06-04T00:20:51;15.10;99.90
34829;DHT22;21042;47.620;12.188;2023-06-04T00:23:17;15.10;99.90
34829;DHT22;21042;47.620;12.188;2023-06-04T00:25:45;15.00;99.90
34829;DHT22;21042;47.620;12.188;2023-06-04T00:28:11;14.90;99.90
34829;DHT22;21042;47.620;12.188;2023-06-04T00:30:38;14.90;99.90
34829;DHT22;21042;47.620;12.188;2023-06-04T00:33:05;14.80;99.90
34829;DHT22;21042;47.620;12.188;2023-06-04T00:35:32;14.60;99.90
34829;DHT22;21042;47.620;12.188;2023-06-04T00:37:59;14.50;99.90
34829;DHT22;21042;47.620;12.188;2023-06-04T00:40:26;14.40;99.90
34829;DHT22;21042;47.620;12.188;2023-06-04T00:42:53;14.40;99.90
34829;DHT22;21042;47.620;12.188;2023-06-04T00:45:22;14.30;99.90
34829;DHT22;21042;47.620;12.188;2023-06-04T00:47:52;14.30;99.90
34829;DHT22;21042;47.620;12.188;2023-06-04T00:50:20;14.20;99.90
34829;DHT22;21042;47.620;12.188;2023-06-04T00:52:49;14.30;99.90
34829;DHT22;21042;47.620;12.188;2023-06-04T00:55:16;14.20;99.90
34829;DHT22;21042;47.620;12.188;2023-06-04T00:57:45;14.30;99.90
34829;DHT22;21042;47.620;12.188;2023-06-04T01:00:12;14.30;99.90
34829;DHT22;21042;47.620;12.188;2023-06-04T01:02:39;14.30;99.90
34829;DHT22;21042;47.620;12.188;2023-06-04T01:05:21;14.30;99.90
34829;DHT22;21042;47.620;12.188;2023-06-04T01:07:52;14.20;99.90
34829;DHT22;21042;47.620;12.188;2023-06-04T01:10:19;14.20;99.90
34829;DHT22;21042;47.620;12.188;2023-06-04T01:12:46;14.10;99.90
34829;DHT22;21042;47.620;12.188;2023-06-04T01:15:13;14.10;99.90
34829;DHT22;21042;47.620;12.188;2023-06-04T01:17:42;14.10;99.90
34829;DHT22;21042;47.620;12.188;2023-06-04T01:20:40;14.10;99.90
34829;DHT22;21042;47.620;12.188;2023-06-04T01:25:42;14.10;99.90
34829;DHT22;21042;47.620;12.188;2023-06-04T01:28:12;14.10;99.90
34829;DHT22;21042;47.620;12.188;2023-06-04T01:30:42;14.10;99.90
34829;DHT22;21042;47.620;12.188;2023-06-04T01:33:14;14.00;99.90
34829;DHT22;21042;47.620;12.188;2023-06-04T01:35:42;14.00;99.90
34829;DHT22;21042;47.620;12.188;2023-06-04T01:38:09;14.00;99.90
34829;DHT22;21042;47.620;12.188;2023-06-04T01:40:37;14.00;99.90
34829;DHT22;21042;47.620;12.188;2023-06-04T01:43:04;14.00;99.90
34829;DHT22;21042;47.620;12.188;2023-06-04T01:45:30;13.90;99.90
34829;DHT22;21042;47.620;12.188;2023-06-04T01:47:57;14.00;99.90
34829;DHT22;21042;47.620;12.188;2023-06-04T01:50:24;13.90;99.90
34829;DHT22;21042;47.620;12.188;2023-06-04T01:52:51;13.90;99.90
34829;DHT22;21042;47.620;12.188;2023-06-04T01:55:18;13.80;99.90
34829;DHT22;21042;47.620;12.188;2023-06-04T01:57:46;13.70;99.90
34829;DHT22;21042;47.620;12.188;2023-06-04T02:00:17;13.70;99.90
34829;DHT22;21042;47.620;12.188;2023-06-04T02:02:45;13.70;99.90
34829;DHT22;21042;47.620;12.188;2023-06-04T02:05:15;13.70;99.90
34829;DHT22;21042;47.620;12.188;2023-06-04T02:07:43;13.70;99.90
34829;DHT22;21042;47.620;12.188;2023-06-04T02:10:13;13.70;99.90
34829;DHT22;21042;47.620;12.188;2023-06-04T02:12:52;13.70;99.90
34829;DHT22;21042;47.620;12.188;2023-06-04T02:15:19;13.70;99.90
34829;DHT22;21042;47.620;12.188;2023-06-04T02:17:46;13.70;99.90
34829;DHT22;21042;47.620;12.188;2023-06-04T02:20:14;13.70;99.90
34829;DHT22;21042;47.620;12.188;2023-06-04T02:22:41;13.70;99.90
34829;DHT22;21042;47.620;12.188;2023-06-04T02:25:08;13.70;99.90
34829;DHT22;21042;47.620;12.188;2023-06-04T02:27:38;13.70;99.90
34829;DHT22;21042;47.620;12.188;2023-06-04T02:30:06;13.80;99.90
34829;DHT22;21042;47.620;12.188;2023-06-04T02:32:33;13.80;99.90
34829;DHT22;21042;47.620;12.188;2023-06-04T02:35:03;13.90;99.90
34829;DHT22;21042;47.620;12.188;2023-06-04T02:37:30;13.90;99.90
34829;DHT22;21042;47.620;12.188;2023-06-04T02:39:57;13.90;99.90
34829;DHT22;21042;47.620;12.188;2023-06-04T02:42:24;13.90;99.90
34829;DHT22;21042;47.620;12.188;2023-06-04T02:44:51;14.10;99.90
34829;DHT22;21042;47.620;12.188;2023-06-04T02:47:18;13.90;99.90
34829;DHT22;21042;47.620;12.188;2023-06-04T02:49:46;13.90;99.90
34829;DHT22;21042;47.620;12.188;2023-06-04T02:52:13;13.90;99.90
34829;DHT22;21042;47.620;12.188;2023-06-04T02:54:40;13.90;99.90
34829;DHT22;21042;47.620;12.188;2023-06-04T02:57:06;13.90;99.90
34829;DHT22;21042;47.620;12.188;2023-06-04T02:59:35;13.70;99.90
34829;DHT22;21042;47.620;12.188;2023-06-04T03:02:04;13.70;99.90
34829;DHT22;21042;47.620;12.188;2023-06-04T03:04:31;13.70;99.90
34829;DHT22;21042;47.620;12.188;2023-06-04T03:07:02;13.70;99.90
34829;DHT22;21042;47.620;12.188;2023-06-04T03:09:30;13.70;99.90
34829;DHT22;21042;47.620;12.188;2023-06-04T03:12:00;13.70;99.90
34829;DHT22;21042;47.620;12.188;2023-06-04T03:14:31;13.70;99.90
34829;DHT22;21042;47.620;12.188;2023-06-04T03:17:00;13.70;99.90
34829;DHT22;21042;47.620;12.188;2023-06-04T03:19:41;13.70;99.90
34829;DHT22;21042;47.620;12.188;2023-06-04T03:22:08;13.60;99.90
34829;DHT22;21042;47.620;12.188;2023-06-04T03:24:41;13.50;99.90
34829;DHT22;21042;47.620;12.188;2023-06-04T03:27:09;13.50;99.90
34829;DHT22;21042;47.620;12.188;2023-06-04T03:29:39;13.60;99.90
34829;DHT22;21042;47.620;12.188;2023-06-04T03:32:07;13.60;99.90
34829;DHT22;21042;47.620;12.188;2023-06-04T03:34:35;13.60;99.90
34829;DHT22;21042;47.620;12.188;2023-06-04T03:37:02;13.70;99.90
34829;DHT22;21042;47.620;12.188;2023-06-04T03:39:30;13.70;99.90
34829;DHT22;21042;47.620;12.188;2023-06-04T03:41:58;13.70;99.90
34829;DHT22;21042;47.620;12.188;2023-06-04T03:44:25;13.70;99.90
34829;DHT22;21042;47.620;12.188;2023-06-04T03:46:52;13.70;99.90
34829;DHT22;21042;47.620;12.188;2023-06-04T03:49:19;13.70;99.90
34829;DHT22;21042;47.620;12.188;2023-06-04T03:51:47;13.70;99.90
34829;DHT22;21042;47.620;12.188;2023-06-04T03:54:14;13.80;99.90
34829;DHT22;21042;47.620;12.188;2023-06-04T03:56:47;13.80;99.90
34829;DHT22;21042;47.620;12.188;2023-06-04T03:59:13;13.80;99.90
34829;DHT22;21042;47.620;12.188;2023-06-04T04:01:42;13.90;99.90
34829;DHT22;21042;47.620;12.188;2023-06-04T04:04:09;13.90;99.90
34829;DHT22;21042;47.620;12.188;2023-06-04T04:06:36;14.00;99.90
34829;DHT22;21042;47.620;12.188;2023-06-04T04:09:04;14.00;99.90
34829;DHT22;21042;47.620;12.188;2023-06-04T04:11:32;14.00;99.90
34829;DHT22;21042;47.620;12.188;2023-06-04T04:13:59;14.10;99.90
34829;DHT22;21042;47.620;12.188;2023-06-04T04:16:27;14.10;99.90
34829;DHT22;21042;47.620;12.188;2023-06-04T04:18:55;14.20;99.90
34829;DHT22;21042;47.620;12.188;2023-06-04T04:21:22;14.20;99.90
34829;DHT22;21042;47.620;12.188;2023-06-04T04:23:50;14.30;99.90
34829;DHT22;21042;47.620;12.188;2023-06-04T04:26:18;14.30;99.90
34829;DHT22;21042;47.620;12.188;2023-06-04T04:28:49;14.30;99.90
34829;DHT22;21042;47.620;12.188;2023-06-04T04:31:16;14.40;99.90
34829;DHT22;21042;47.620;12.188;2023-06-04T04:33:45;14.40;99.90
34829;DHT22;21042;47.620;12.188;2023-06-04T04:36:13;14.40;99.90
34829;DHT22;21042;47.620;12.188;2023-06-04T04:38:45;14.50;99.90
34829;DHT22;21042;47.620;12.188;2023-06-04T04:41:12;14.50;99.90
34829;DHT22;21042;47.620;12.188;2023-06-04T04:43:40;14.60;99.90
34829;DHT22;21042;47.620;12.188;2023-06-04T04:46:21;14.60;99.90
34829;DHT22;21042;47.620;12.188;2023-06-04T04:48:49;14.60;99.90
34829;DHT22;21042;47.620;12.188;2023-06-04T04:51:16;14.70;99.90
34829;DHT22;21042;47.620;12.188;2023-06-04T04:53:42;14.80;99.90
34829;DHT22;21042;47.620;12.188;2023-06-04T04:56:10;14.90;99.90
34829;DHT22;21042;47.620;12.188;2023-06-04T04:58:42;14.90;99.90
34829;DHT22;21042;47.620;12.188;2023-06-04T05:01:09;14.90;99.90
34829;DHT22;21042;47.620;12.188;2023-06-04T05:03:38;15.00;99.90
34829;DHT22;21042;47.620;12.188;2023-06-04T05:06:05;15.00;99.90
34829;DHT22;21042;47.620;12.188;2023-06-04T05:08:32;15.00;99.90
34829;DHT22;21042;47.620;12.188;2023-06-04T05:10:59;15.00;99.90
34829;DHT22;21042;47.620;12.188;2023-06-04T05:13:27;15.00;99.90
34829;DHT22;21042;47.620;12.188;2023-06-04T05:15:59;15.10;99.90
34829;DHT22;21042;47.620;12.188;2023-06-04T05:18:37;15.20;99.90
34829;DHT22;21042;47.620;12.188;2023-06-04T05:21:09;15.30;99.90
34829;DHT22;21042;47.620;12.188;2023-06-04T05:23:41;15.40;99.90
34829;DHT22;21042;47.620;12.188;2023-06-04T05:26:09;15.50;99.90
34829;DHT22;21042;47.620;12.188;2023-06-04T05:28:35;15.60;99.90
34829;DHT22;21042;47.620;12.188;2023-06-04T05:31:03;15.60;99.90
34829;DHT22;21042;47.620;12.188;2023-06-04T05:33:33;15.70;99.90
34829;DHT22;21042;47.620;12.188;2023-06-04T05:36:05;15.50;99.90
34829;DHT22;21042;47.620;12.188;2023-06-04T05:38:38;15.50;99.90
34829;DHT22;21042;47.620;12.188;2023-06-04T05:41:08;15.50;99.90
34829;DHT22;21042;47.620;12.188;2023-06-04T05:43:37;15.40;99.90
34829;DHT22;21042;47.620;12.188;2023-06-04T05:46:06;15.40;99.90
34829;DHT22;21042;47.620;12.188;2023-06-04T05:48:34;15.40;99.90
34829;DHT22;21042;47.620;12.188;2023-06-04T05:51:01;15.50;99.90
34829;DHT22;21042;47.620;12.188;2023-06-04T05:53:28;15.50;99.90
34829;DHT22;21042;47.620;12.188;2023-06-04T05:55:55;15.60;99.90
34829;DHT22;21042;47.620;12.188;2023-06-04T05:58:22;15.70;99.90
34829;DHT22;21042;47.620;12.188;2023-06-04T06:00:50;15.70;99.90
34829;DHT22;21042;47.620;12.188;2023-06-04T06:03:18;15.80;99.90
34829;DHT22;21042;47.620;12.188;2023-06-04T06:05:47;15.80;99.90
34829;DHT22;21042;47.620;12.188;2023-06-04T06:08:14;15.80;99.90
34829;DHT22;21042;47.620;12.188;2023-06-04T06:10:41;15.80;99.90
34829;DHT22;21042;47.620;12.188;2023-06-04T06:13:09;15.90;99.90
34829;DHT22;21042;47.620;12.188;2023-06-04T06:15:36;16.00;99.90
34829;DHT22;21042;47.620;12.188;2023-06-04T06:18:02;16.10;99.90
34829;DHT22;21042;47.620;12.188;2023-06-04T06:20:29;16.20;99.90
34829;DHT22;21042;47.620;12.188;2023-06-04T06:22:56;16.20;99.90
34829;DHT22;21042;47.620;12.188;2023-06-04T06:25:23;16.40;99.90
34829;DHT22;21042;47.620;12.188;2023-06-04T06:27:59;16.50;99.90
34829;DHT22;21042;47.620;12.188;2023-06-04T06:30:27;16.70;99.90
34829;DHT22;21042;47.620;12.188;2023-06-04T06:32:54;16.80;99.90
34829;DHT22;21042;47.620;12.188;2023-06-04T06:35:22;17.00;99.90
34829;DHT22;21042;47.620;12.188;2023-06-04T06:37:49;17.00;99.90
34829;DHT22;21042;47.620;12.188;2023-06-04T06:40:16;17.20;99.90
34829;DHT22;21042;47.620;12.188;2023-06-04T06:42:47;17.10;99.90
34829;DHT22;21042;47.620;12.188;2023-06-04T06:45:14;17.20;99.90
34829;DHT22;21042;47.620;12.188;2023-06-04T06:47:40;17.20;99.90
34829;DHT22;21042;47.620;12.188;2023-06-04T06:50:07;17.20;99.90
34829;DHT22;21042;47.620;12.188;2023-06-04T06:52:34;17.20;99.90
34829;DHT22;21042;47.620;12.188;2023-06-04T06:55:01;17.00;99.90
34829;DHT22;21042;47.620;12.188;2023-06-04T06:57:28;16.90;99.90
34829;DHT22;21042;47.620;12.188;2023-06-04T06:59:55;16.90;99.90
34829;DHT22;21042;47.620;12.188;2023-06-04T07:02:22;16.80;99.90
34829;DHT22;21042;47.620;12.188;2023-06-04T07:04:49;16.70;99.90
34829;DHT22;21042;47.620;12.188;2023-06-04T07:07:15;16.90;99.90
34829;DHT22;21042;47.620;12.188;2023-06-04T07:09:44;16.90;99.90
34829;DHT22;21042;47.620;12.188;2023-06-04T07:12:11;17.00;99.90
34829;DHT22;21042;47.620;12.188;2023-06-04T07:14:38;17.00;99.90
34829;DHT22;21042;47.620;12.188;2023-06-04T07:17:05;17.00;99.90
34829;DHT22;21042;47.620;12.188;2023-06-04T07:19:32;17.10;99.90
34829;DHT22;21042;47.620;12.188;2023-06-04T07:21:58;17.30;99.90
34829;DHT22;21042;47.620;12.188;2023-06-04T07:24:25;17.50;99.90
34829;DHT22;21042;47.620;12.188;2023-06-04T07:26:52;17.60;99.90
34829;DHT22;21042;47.620;12.188;2023-06-04T07:29:19;17.70;99.90
34829;DHT22;21042;47.620;12.188;2023-06-04T07:31:46;17.90;99.90
34829;DHT22;21042;47.620;12.188;2023-06-04T07:34:13;18.00;99.90
34829;DHT22;21042;47.620;12.188;2023-06-04T07:36:39;18.20;99.90
34829;DHT22;21042;47.620;12.188;2023-06-04T07:39:07;18.40;99.90
34829;DHT22;21042;47.620;12.188;2023-06-04T07:41:33;18.30;99.90
34829;DHT22;21042;47.620;12.188;2023-06-04T07:44:00;18.50;99.90
34829;DHT22;21042;47.620;12.188;2023-06-04T07:46:27;18.50;99.90
34829;DHT22;21042;47.620;12.188;2023-06-04T07:48:54;18.60;99.90
34829;DHT22;21042;47.620;12.188;2023-06-04T07:51:21;18.60;99.90
34829;DHT22;21042;47.620;12.188;2023-06-04T07:53:49;18.80;99.90
34829;DHT22;21042;47.620;12.188;2023-06-04T07:56:16;18.80;99.90
34829;DHT22;21042;47.620;12.188;2023-06-04T07:58:44;18.90;99.90
34829;DHT22;21042;47.620;12.188;2023-06-04T08:01:11;18.90;99.90
34829;DHT22;21042;47.620;12.188;2023-06-04T08:03:38;19.00;99.90
34829;DHT22;21042;47.620;12.188;2023-06-04T08:06:07;19.10;99.90
34829;DHT22;21042;47.620;12.188;2023-06-04T08:08:34;19.20;99.90
34829;DHT22;21042;47.620;12.188;2023-06-04T08:11:01;19.20;99.90
34829;DHT22;21042;47.620;12.188;2023-06-04T08:13:27;19.20;99.90
34829;DHT22;21042;47.620;12.188;2023-06-04T08:15:54;19.20;99.90
34829;DHT22;21042;47.620;12.188;2023-06-04T08:18:21;19.20;99.90
34829;DHT22;21042;47.620;12.188;2023-06-04T08:20:48;19.00;99.90
34829;DHT22;21042;47.620;12.188;2023-06-04T08:23:15;19.00;99.90
34829;DHT22;21042;47.620;12.188;2023-06-04T08:25:41;18.80;99.90
34829;DHT22;21042;47.620;12.188;2023-06-04T08:28:08;18.60;99.90
34829;DHT22;21042;47.620;12.188;2023-06-04T08:30:35;18.70;99.90
34829;DHT22;21042;47.620;12.188;2023-06-04T08:33:02;18.90;99.90
34829;DHT22;21042;47.620;12.188;2023-06-04T08:35:29;19.00;99.90
34829;DHT22;21042;47.620;12.188;2023-06-04T08:37:56;19.10;99.90
34829;DHT22;21042;47.620;12.188;2023-06-04T08:40:24;19.30;99.90
34829;DHT22;21042;47.620;12.188;2023-06-04T08:42:51;19.60;99.90
34829;DHT22;21042;47.620;12.188;2023-06-04T08:45:24;19.80;99.90
34829;DHT22;21042;47.620;12.188;2023-06-04T08:47:53;19.90;99.90
34829;DHT22;21042;47.620;12.188;2023-06-04T08:50:22;19.80;99.90
34829;DHT22;21042;47.620;12.188;2023-06-04T08:52:54;19.80;99.90
34829;DHT22;21042;47.620;12.188;2023-06-04T08:55:23;19.70;99.90
34829;DHT22;21042;47.620;12.188;2023-06-04T08:57:50;19.90;99.90
34829;DHT22;21042;47.620;12.188;2023-06-04T09:00:18;20.20;99.90
34829;DHT22;21042;47.620;12.188;2023-06-04T09:02:47;20.40;99.90
34829;DHT22;21042;47.620;12.188;2023-06-04T09:05:20;20.50;99.90
34829;DHT22;21042;47.620;12.188;2023-06-04T09:07:48;20.60;99.90
34829;DHT22;21042;47.620;12.188;2023-06-04T09:10:18;20.30;99.90
34829;DHT22;21042;47.620;12.188;2023-06-04T09:12:49;20.30;99.90
34829;DHT22;21042;47.620;12.188;2023-06-04T09:15:17;20.20;99.90
34829;DHT22;21042;47.620;12.188;2023-06-04T09:17:44;20.40;99.90
34829;DHT22;21042;47.620;12.188;2023-06-04T09:20:21;20.80;99.90
34829;DHT22;21042;47.620;12.188;2023-06-04T09:22:48;20.70;99.90
34829;DHT22;21042;47.620;12.188;2023-06-04T09:25:20;20.80;99.90
34829;DHT22;21042;47.620;12.188;2023-06-04T09:27:48;20.90;99.90
34829;DHT22;21042;47.620;12.188;2023-06-04T09:30:15;21.10;99.90
34829;DHT22;21042;47.620;12.188;2023-06-04T09:32:42;21.30;99.90
34829;DHT22;21042;47.620;12.188;2023-06-04T09:35:14;21.30;99.90
34829;DHT22;21042;47.620;12.188;2023-06-04T09:37:42;21.30;99.90
34829;DHT22;21042;47.620;12.188;2023-06-04T09:40:10;21.20;99.90
34829;DHT22;21042;47.620;12.188;2023-06-04T09:42:47;21.10;99.90
34829;DHT22;21042;47.620;12.188;2023-06-04T09:45:32;21.10;99.90
34829;DHT22;21042;47.620;12.188;2023-06-04T09:47:59;20.90;99.90
34829;DHT22;21042;47.620;12.188;2023-06-04T09:50:32;20.90;99.90
34829;DHT22;21042;47.620;12.188;2023-06-04T09:53:00;20.90;99.90
34829;DHT22;21042;47.620;12.188;2023-06-04T09:55:28;20.90;99.90
34829;DHT22;21042;47.620;12.188;2023-06-04T09:57:56;21.00;99.90
34829;DHT22;21042;47.620;12.188;2023-06-04T10:00:25;21.00;99.90
34829;DHT22;21042;47.620;12.188;2023-06-04T10:02:56;21.00;99.90
34829;DHT22;21042;47.620;12.188;2023-06-04T10:05:25;21.00;99.90
34829;DHT22;21042;47.620;12.188;2023-06-04T10:07:54;20.80;99.90
34829;DHT22;21042;47.620;12.188;2023-06-04T10:10:25;20.60;99.90
34829;DHT22;21042;47.620;12.188;2023-06-04T10:13:09;20.50;99.90
34829;DHT22;21042;47.620;12.188;2023-06-04T10:15:42;20.40;99.90
34829;DHT22;21042;47.620;12.188;2023-06-04T10:18:10;20.50;99.90
34829;DHT22;21042;47.620;12.188;2023-06-04T10:20:38;20.60;99.90
34829;DHT22;21042;47.620;12.188;2023-06-04T10:23:06;20.70;99.90
34829;DHT22;21042;47.620;12.188;2023-06-04T10:25:35;20.80;99.90
34829;DHT22;21042;47.620;12.188;2023-06-04T10:28:02;20.80;99.90
34829;DHT22;21042;47.620;12.188;2023-06-04T10:30:30;21.00;99.90
34829;DHT22;21042;47.620;12.188;2023-06-04T10:32:58;21.20;99.90
34829;DHT22;21042;47.620;12.188;2023-06-04T10:35:35;21.40;99.90
34829;DHT22;21042;47.620;12.188;2023-06-04T10:38:10;21.70;99.90
34829;DHT22;21042;47.620;12.188;2023-06-04T10:40:37;22.00;99.90
34829;DHT22;21042;47.620;12.188;2023-06-04T10:43:12;22.00;99.90
34829;DHT22;21042;47.620;12.188;2023-06-04T10:45:40;22.00;99.90
34829;DHT22;21042;47.620;12.188;2023-06-04T10:48:09;22.00;99.90
34829;DHT22;21042;47.620;12.188;2023-06-04T10:50:51;22.00;99.90
34829;DHT22;21042;47.620;12.188;2023-06-04T10:53:19;22.20;99.90
34829;DHT22;21042;47.620;12.188;2023-06-04T10:55:47;22.40;99.90
34829;DHT22;21042;47.620;12.188;2023-06-04T10:58:14;22.40;99.90
34829;DHT22;21042;47.620;12.188;2023-06-04T11:00:44;22.30;99.90
34829;DHT22;21042;47.620;12.188;2023-06-04T11:03:16;22.20;99.90
34829;DHT22;21042;47.620;12.188;2023-06-04T11:05:45;22.30;99.90
34829;DHT22;21042;47.620;12.188;2023-06-04T11:08:13;22.20;99.90
34829;DHT22;21042;47.620;12.188;2023-06-04T11:10:42;22.10;99.90
34829;DHT22;21042;47.620;12.188;2023-06-04T11:13:10;22.00;99.90
34829;DHT22;21042;47.620;12.188;2023-06-04T11:15:44;22.00;99.90
34829;DHT22;21042;47.620;12.188;2023-06-04T11:18:16;21.90;99.90
34829;DHT22;21042;47.620;12.188;2023-06-04T11:20:47;21.70;99.90
34829;DHT22;21042;47.620;12.188;2023-06-04T11:23:15;21.60;99.90
34829;DHT22;21042;47.620;12.188;2023-06-04T11:25:43;21.50;99.90
34829;DHT22;21042;47.620;12.188;2023-06-04T11:28:17;21.50;99.90
34829;DHT22;21042;47.620;12.188;2023-06-04T11:31:00;21.50;99.90
34829;DHT22;21042;47.620;12.188;2023-06-04T11:33:45;21.50;99.90
34829;DHT22;21042;47.620;12.188;2023-06-04T11:36:26;21.50;99.90
34829;DHT22;21042;47.620;12.188;2023-06-04T11:39:01;21.60;99.90
34829;DHT22;21042;47.620;12.188;2023-06-04T11:41:32;21.60;99.90
34829;DHT22;21042;47.620;12.188;2023-06-04T11:44:03;21.60;99.90
34829;DHT22;21042;47.620;12.188;2023-06-04T11:46:34;21.50;99.90
34829;DHT22;21042;47.620;12.188;2023-06-04T11:49:04;21.50;99.90
34829;DHT22;21042;47.620;12.188;2023-06-04T11:51:32;21.50;99.90
34829;DHT22;21042;47.620;12.188;2023-06-04T11:53:59;21.70;99.90
34829;DHT22;21042;47.620;12.188;2023-06-04T11:56:26;21.70;99.90
34829;DHT22;21042;47.620;12.188;2023-06-04T11:58:54;21.80;99.90
34829;DHT22;21042;47.620;12.188;2023-06-04T12:01:21;21.80;99.70
34829;DHT22;21042;47.620;12.188;2023-06-04T12:03:49;21.70;99.20
34829;DHT22;21042;47.620;12.188;2023-06-04T12:06:18;21.80;99.90
34829;DHT22;21042;47.620;12.188;2023-06-04T12:08:53;21.80;99.90
34829;DHT22;21042;47.620;12.188;2023-06-04T12:11:33;22.10;99.80
34829;DHT22;21042;47.620;12.188;2023-06-04T12:14:05;22.30;99.90
34829;DHT22;21042;47.620;12.188;2023-06-04T12:16:33;22.60;99.90
34829;DHT22;21042;47.620;12.188;2023-06-04T12:19:07;22.90;99.90
34829;DHT22;21042;47.620;12.188;2023-06-04T12:21:34;22.90;98.60
34829;DHT22;21042;47.620;12.188;2023-06-04T12:24:11;22.90;98.60
34829;DHT22;21042;47.620;12.188;2023-06-04T12:26:39;23.00;99.20
34829;DHT22;21042;47.620;12.188;2023-06-04T12:29:14;22.90;98.40
34829;DHT22;21042;47.620;12.188;2023-06-04T12:31:43;22.60;98.40
34829;DHT22;21042;47.620;12.188;2023-06-04T12:34:15;22.40;99.10
34829;DHT22;21042;47.620;12.188;2023-06-04T12:36:42;22.30;99.90
34829;DHT22;21042;47.620;12.188;2023-06-04T12:39:09;22.30;99.20
34829;DHT22;21042;47.620;12.188;2023-06-04T12:41:36;22.40;99.70
34829;DHT22;21042;47.620;12.188;2023-06-04T12:44:03;22.20;99.10
34829;DHT22;21042;47.620;12.188;2023-06-04T12:46:29;22.00;98.80
34829;DHT22;21042;47.620;12.188;2023-06-04T12:48:56;22.00;98.60
34829;DHT22;21042;47.620;12.188;2023-06-04T12:51:23;22.00;98.70
34829;DHT22;21042;47.620;12.188;2023-06-04T12:53:50;22.10;98.50
34829;DHT22;21042;47.620;12.188;2023-06-04T12:56:17;22.20;98.40
34829;DHT22;21042;47.620;12.188;2023-06-04T12:58:44;22.20;97.30
34829;DHT22;21042;47.620;12.188;2023-06-04T13:01:11;22.20;97.60
34829;DHT22;21042;47.620;12.188;2023-06-04T13:03:40;22.10;98.50
34829;DHT22;21042;47.620;12.188;2023-06-04T13:06:07;22.10;98.20
34829;DHT22;21042;47.620;12.188;2023-06-04T13:08:34;22.20;98.30
34829;DHT22;21042;47.620;12.188;2023-06-04T13:11:02;22.20;97.00
34829;DHT22;21042;47.620;12.188;2023-06-04T13:13:29;22.20;97.60
34829;DHT22;21042;47.620;12.188;2023-06-04T13:15:56;22.20;98.20
34829;DHT22;21042;47.620;12.188;2023-06-04T13:18:23;22.00;97.60
34829;DHT22;21042;47.620;12.188;2023-06-04T13:20:50;22.00;97.40
34829;DHT22;21042;47.620;12.188;2023-06-04T13:23:17;22.00;97.90
34829;DHT22;21042;47.620;12.188;2023-06-04T13:25:44;22.10;98.20
34829;DHT22;21042;47.620;12.188;2023-06-04T13:28:11;22.30;97.00
34829;DHT22;21042;47.620;12.188;2023-06-04T13:30:38;22.30;97.20
34829;DHT22;21042;47.620;12.188;2023-06-04T13:33:05;22.50;97.80
34829;DHT22;21042;47.620;12.188;2023-06-04T13:35:32;22.80;98.00
34829;DHT22;21042;47.620;12.188;2023-06-04T13:37:58;23.00;98.10
34829;DHT22;21042;47.620;12.188;2023-06-04T13:40:25;23.00;97.70
34829;DHT22;21042;47.620;12.188;2023-06-04T13:42:52;22.80;96.70
34829;DHT22;21042;47.620;12.188;2023-06-04T13:45:19;22.80;96.80
34829;DHT22;21042;47.620;12.188;2023-06-04T13:47:47;23.00;95.90
34829;DHT22;21042;47.620;12.188;2023-06-04T13:50:15;23.00;96.00
34829;DHT22;21042;47.620;12.188;2023-06-04T13:52:42;23.10;96.70
34829;DHT22;21042;47.620;12.188;2023-06-04T13:55:09;23.10;96.50
34829;DHT22;21042;47.620;12.188;2023-06-04T13:57:35;23.00;95.80
34829;DHT22;21042;47.620;12.188;2023-06-04T14:00:02;22.80;95.40
34829;DHT22;21042;47.620;12.188;2023-06-04T14:02:29;22.70;96.30
34829;DHT22;21042;47.620;12.188;2023-06-04T14:04:56;22.50;95.80
34829;DHT22;21042;47.620;12.188;2023-06-04T14:07:23;22.40;96.60
34829;DHT22;21042;47.620;12.188;2023-06-04T14:09:50;22.30;95.40
34829;DHT22;21042;47.620;12.188;2023-06-04T14:12:24;22.10;96.00
34829;DHT22;21042;47.620;12.188;2023-06-04T14:14:51;22.10;95.80
34829;DHT22;21042;47.620;12.188;2023-06-04T14:17:18;22.00;95.90
34829;DHT22;21042;47.620;12.188;2023-06-04T14:19:45;22.10;96.50
34829;DHT22;21042;47.620;12.188;2023-06-04T14:22:11;22.20;97.50
34829;DHT22;21042;47.620;12.188;2023-06-04T14:24:40;22.40;97.30
34829;DHT22;21042;47.620;12.188;2023-06-04T14:27:07;22.50;96.40
34829;DHT22;21042;47.620;12.188;2023-06-04T14:29:35;22.60;96.70
34829;DHT22;21042;47.620;12.188;2023-06-04T14:32:02;22.40;96.30
34829;DHT22;21042;47.620;12.188;2023-06-04T14:34:29;22.30;96.70
34829;DHT22;21042;47.620;12.188;2023-06-04T14:36:56;22.10;96.60
34829;DHT22;21042;47.620;12.188;2023-06-04T14:39:27;22.00;96.80
34829;DHT22;21042;47.620;12.188;2023-06-04T14:41:54;21.90;95.70
34829;DHT22;21042;47.620;12.188;2023-06-04T14:44:21;21.90;95.90
34829;DHT22;21042;47.620;12.188;2023-06-04T14:46:49;21.80;96.00
34829;DHT22;21042;47.620;12.188;2023-06-04T14:49:16;21.70;96.10
34829;DHT22;21042;47.620;12.188;2023-06-04T14:51:43;21.60;96.30
34829;DHT22;21042;47.620;12.188;2023-06-04T14:54:10;21.50;96.20
34829;DHT22;21042;47.620;12.188;2023-06-04T14:56:37;21.50;96.60
34829;DHT22;21042;47.620;12.188;2023-06-04T14:59:04;21.40;96.30
34829;DHT22;21042;47.620;12.188;2023-06-04T15:01:35;21.40;96.80
34829;DHT22;21042;47.620;12.188;2023-06-04T15:04:04;21.50;96.70
34829;DHT22;21042;47.620;12.188;2023-06-04T15:06:31;21.70;96.90
34829;DHT22;21042;47.620;12.188;2023-06-04T15:08:58;21.80;96.90
34829;DHT22;21042;47.620;12.188;2023-06-04T15:11:25;21.80;96.50
34829;DHT22;21042;47.620;12.188;2023-06-04T15:13:53;21.90;96.60
34829;DHT22;21042;47.620;12.188;2023-06-04T15:16:20;22.00;96.20
34829;DHT22;21042;47.620;12.188;2023-06-04T15:18:48;22.00;96.60
34829;DHT22;21042;47.620;12.188;2023-06-04T15:21:15;22.30;96.50
34829;DHT22;21042;47.620;12.188;2023-06-04T15:23:42;22.40;94.50
34829;DHT22;21042;47.620;12.188;2023-06-04T15:26:11;22.80;94.70